Time;durP1;ratioP1;P1;durP2;ratioP2;P2;SDS_P1;SDS_P2;PMS_P1;PMS_P2;Temp;Humidity;BMP_temperature;BMP_pressure;BME280_temperature;BME280_humidity;BME280_pressure;Samples;Min_cycle;Max_cycle;Signal;HPM_P1;HPM_P2
2023/01/01 00:01:41;;;;;;;;;;;;;;;12.34;81.60;100098.55;1791770;80;25208;-47
2023/01/01 00:04:14;;;;;;;27.50;15.90;;;;;;;12.32;81.51;100092.09;1789292;80;25415;-48
2023/01/01 00:06:42;;;;;;;21.85;14.78;;;;;;;12.31;81.66;100090.52;1789154;80;25623;-48
2023/01/01 00:11:56;;;;;;;23.27;14.13;;;;;;;12.30;81.65;100095.70;1789106;80;27312;-49
2023/01/01 00:14:23;;;;;;;20.55;13.75;;;;;;;12.28;81.62;100102.02;1788973;80;27144;-49
2023/01/01 00:16:50;;;;;;;23.65;13.20;;;;;;;12.25;81.64;100095.88;1789134;80;25384;-48
2023/01/01 00:19:17;;;;;;;23.38;13.72;;;;;;;12.28;81.74;100103.94;1789054;80;25415;-50
2023/01/01 00:21:43;;;;;;;27.65;12.90;;;;;;;12.28;81.71;100099.88;1789213;80;25623;-47
2023/01/01 00:24:10;;;;;;;21.12;12.53;;;;;;;12.27;81.65;100083.35;1789056;80;27338;-47
2023/01/01 00:26:37;;;;;;;14.73;10.50;;;;;;;12.28;81.73;100091.73;1789038;80;26036;-49
2023/01/01 00:29:04;;;;;;;18.80;11.43;;;;;;;12.28;81.77;100092.52;1789157;80;25431;-47
2023/01/01 00:31:32;;;;;;;16.25;9.73;;;;;;;12.29;81.72;100087.89;1789008;80;25434;-51
2023/01/01 00:34:00;;;;;;;14.63;9.50;;;;;;;12.26;81.72;100075.79;1757920;81;25567;-48
2023/01/01 00:36:29;;;;;;;14.65;9.73;;;;;;;12.28;81.75;100086.31;1789070;80;27422;-49
2023/01/01 00:38:56;;;;;;;12.73;8.75;;;;;;;12.27;81.72;100080.08;1789030;80;25631;-47
2023/01/01 00:41:24;;;;;;;12.43;7.97;;;;;;;12.30;81.77;100085.42;1789104;80;25502;-48
2023/01/01 00:43:50;;;;;;;14.40;8.40;;;;;;;12.32;81.66;100092.09;1789061;80;25624;-48
2023/01/01 00:46:17;;;;;;;11.35;7.97;;;;;;;12.31;81.75;100091.87;1789107;80;25639;-47
2023/01/01 00:48:44;;;;;;;12.95;8.23;;;;;;;12.34;81.70;100108.05;1789044;80;27969;-48
2023/01/01 00:51:12;;;;;;;100.33;66.90;;;;;;;12.33;81.53;100098.34;1788994;80;25623;-49
2023/01/01 00:53:40;;;;;;;14.13;8.25;;;;;;;12.36;81.58;100106.37;1780281;79;25489;-50
2023/01/01 00:56:07;;;;;;;13.03;7.08;;;;;;;12.38;81.52;100094.63;1739488;82;26027;-49
2023/01/01 00:58:34;;;;;;;13.43;7.22;;;;;;;12.39;81.45;100093.52;1739882;82;25560;-49
2023/01/01 01:01:02;;;;;;;13.08;7.47;;;;;;;12.41;81.33;100096.16;1739448;82;27375;-49
2023/01/01 01:03:29;;;;;;;14.35;9.40;;;;;;;12.42;81.27;100100.44;1739422;82;25680;-50
2023/01/01 01:06:07;;;;;;;13.13;8.53;;;;;;;12.44;81.25;100094.69;1739911;82;25629;-47
2023/01/01 01:08:39;;;;;;;12.00;7.05;;;;;;;12.44;81.10;100104.19;1739668;82;25558;-49
2023/01/01 01:11:23;;;;;;;12.78;7.60;;;;;;;12.44;81.06;100104.19;1739798;82;25557;-48
2023/01/01 01:13:55;;;;;;;13.08;7.37;;;;;;;12.43;80.98;100102.05;1739783;82;27377;-48
2023/01/01 01:16:30;;;;;;;11.53;7.55;;;;;;;12.42;80.94;100104.51;1739714;82;25774;-49
2023/01/01 01:19:00;;;;;;;11.40;7.30;;;;;;;12.40;80.81;100101.91;1739788;82;25461;-48
2023/01/01 01:21:31;;;;;;;11.25;6.42;;;;;;;12.37;80.76;100097.13;1739449;82;26282;-48
2023/01/01 01:24:01;;;;;;;11.97;7.12;;;;;;;12.34;80.80;100099.91;1720970;82;25667;-50
2023/01/01 01:26:34;;;;;;;11.73;7.28;;;;;;;12.31;80.82;100106.80;1739785;82;27979;-48
2023/01/01 01:29:00;;;;;;;10.75;7.15;;;;;;;12.29;80.83;100107.69;1739685;82;25388;-49
2023/01/01 01:31:31;;;;;;;12.50;7.05;;;;;;;12.27;80.85;100108.55;1739417;82;25626;-48
2023/01/01 01:33:59;;;;;;;13.35;7.45;;;;;;;12.27;80.86;100112.61;1720717;82;25773;-48
2023/01/01 01:36:27;;;;;;;10.90;7.05;;;;;;;12.24;80.84;100118.71;1739492;82;25609;-48
2023/01/01 01:38:55;;;;;;;19.17;7.95;;;;;;;12.23;80.89;100109.54;1739729;81;27322;-46
2023/01/01 01:41:26;;;;;;;12.82;7.42;;;;;;;12.19;80.83;100112.64;1739390;82;25638;-46
2023/01/01 01:44:01;;;;;;;13.43;7.00;;;;;;;12.16;80.88;100101.91;1739438;82;25483;-48
2023/01/01 01:46:38;;;;;;;13.75;7.87;;;;;;;12.14;80.84;100106.29;1739782;82;26220;-50
2023/01/01 01:49:20;;;;;;;12.80;7.85;;;;;;;12.11;80.88;100104.22;1739506;82;25465;-49
2023/01/01 01:51:48;;;;;;;13.80;7.28;;;;;;;12.08;80.90;100106.78;1737729;82;27413;-48
2023/01/01 01:54:21;;;;;;;11.57;7.10;;;;;;;12.05;81.01;100110.14;1744590;81;25604;-50
2023/01/01 01:56:54;;;;;;;10.93;7.72;;;;;;;12.02;81.03;100108.07;1789073;80;25533;-49
2023/01/01 01:59:26;;;;;;;10.40;7.10;;;;;;;11.96;81.10;100099.32;1757877;81;25547;-48
2023/01/01 02:01:55;;;;;;;11.68;7.28;;;;;;;11.96;81.17;100096.61;1789068;80;25578;-49
2023/01/01 02:04:23;;;;;;;13.18;7.92;;;;;;;11.93;81.20;100095.33;1789211;80;28033;-47
2023/01/01 02:06:53;;;;;;;12.63;7.20;;;;;;;11.93;81.31;100104.02;1789088;80;25377;-47
2023/01/01 02:09:22;;;;;;;10.75;7.35;;;;;;;11.93;81.32;100098.61;1758392;80;25601;-47
2023/01/01 02:11:48;;;;;;;10.60;7.40;;;;;;;11.90;81.33;100100.03;1789081;80;25491;-48
2023/01/01 02:14:18;;;;;;;14.07;7.45;;;;;;;11.90;81.31;100095.97;1789035;80;25424;-49
2023/01/01 02:17:00;;;;;;;12.07;7.08;;;;;;;11.89;81.19;100098.42;1789116;80;28017;-49
2023/01/01 02:19:50;;;;;;;10.43;6.55;;;;;;;11.88;81.32;100083.84;1788411;80;25377;-48
2023/01/01 02:22:30;;;;;;;11.12;6.67;;;;;;;11.90;81.31;100083.77;1784179;80;25518;-47
2023/01/01 02:25:41;;;;;;;11.55;7.55;;;;;;;11.89;81.17;100101.14;1789006;80;25584;-48
2023/01/01 02:28:33;;;;;;;11.28;7.20;;;;;;;11.89;81.24;100101.70;1785949;80;25384;-48
2023/01/01 02:31:01;;;;;;;12.18;7.87;;;;;;;11.88;81.27;100100.89;1788971;80;27330;-47
2023/01/01 02:33:30;;;;;;;13.03;7.33;;;;;;;11.88;81.24;100098.18;1788982;80;25406;-47
2023/01/01 02:36:03;;;;;;;14.93;8.03;;;;;;;11.88;81.21;100105.52;1733486;80;25402;-49
2023/01/01 02:38:35;;;;;;;14.95;8.33;;;;;;;11.88;81.09;100113.09;1788989;80;25566;-50
2023/01/01 02:41:08;;;;;;;11.50;7.87;;;;;;;11.87;81.16;100106.66;1787510;80;25459;-47
2023/01/01 02:43:37;;;;;;;13.32;7.92;;;;;;;11.87;81.11;100097.95;1789020;80;27505;-48
2023/01/01 02:46:11;;;;;;;12.73;7.70;;;;;;;11.86;81.10;100097.71;1788934;80;25443;-48
2023/01/01 02:48:48;;;;;;;13.10;7.08;;;;;;;11.85;81.02;100092.07;1789050;80;25388;-49
2023/01/01 02:51:47;;;;;;;12.05;7.30;;;;;;;11.86;81.01;100083.38;1789014;80;25915;-48
2023/01/01 02:54:22;;;;;;;12.88;7.70;;;;;;;11.88;80.96;100078.42;1789728;80;25450;-48
2023/01/01 02:57:11;;;;;;;12.98;7.05;;;;;;;11.86;80.90;100082.80;1794098;80;27538;-48
2023/01/01 03:00:18;;;;;;;10.55;7.17;;;;;;;11.88;80.86;100094.68;1795129;80;25430;-51
2023/01/01 03:02:56;;;;;;;9.68;6.28;;;;;;;11.89;80.89;100088.16;1794908;80;25556;-49
2023/01/01 03:09:01;;;;;;;11.33;6.12;;;;;;;11.94;80.54;100090.16;1794918;80;25509;-46
2023/01/01 03:11:51;;;;;;;9.45;6.17;;;;;;;12.00;80.52;100082.64;1794990;80;27922;-47
2023/01/01 03:14:48;;;;;;;10.65;5.50;;;;;;;12.04;80.46;100082.81;1793825;80;25976;-47
2023/01/01 03:17:31;;;;;;;9.05;5.70;;;;;;;12.05;79.80;100076.25;1762642;80;25417;-49
2023/01/01 03:20:03;;;;;;;9.20;5.15;;;;;;;12.14;79.66;100064.27;1794625;80;25451;-48
2023/01/01 03:22:35;;;;;;;10.25;4.95;;;;;;;12.25;79.74;100063.91;1794870;80;25523;-47
2023/01/01 03:25:13;;;;;;;8.70;5.67;;;;;;;12.30;79.09;100056.95;1795081;79;27431;-47
2023/01/01 03:27:56;;;;;;;9.15;5.25;;;;;;;12.36;78.74;100060.26;1794905;80;25545;-47
2023/01/01 03:30:25;;;;;;;11.65;8.88;;;;;;;12.44;79.25;100062.92;1765548;80;25466;-48
2023/01/01 03:33:04;;;;;;;;;;;;;;;12.52;78.43;100054.53;1797569;80;25580;-47
2023/01/01 03:35:51;;;;;;;8.75;4.72;;;;;;;12.58;77.32;100054.58;1795252;80;32334;-48
2023/01/01 03:38:31;;;;;;;13.45;6.10;;;;;;;12.65;77.74;100052.68;1794998;80;29513;-48
2023/01/01 03:41:06;;;;;;;9.65;5.33;;;;;;;12.69;77.49;100056.34;1794910;80;25770;-47
2023/01/01 03:43:51;;;;;;;12.33;5.65;;;;;;;12.74;77.48;100074.36;1782609;80;25605;-51
2023/01/01 03:46:23;;;;;;;8.48;4.78;;;;;;;12.76;76.24;100078.33;1794994;80;25600;-49
2023/01/01 03:48:56;;;;;;;11.22;5.42;;;;;;;12.82;76.72;100088.42;1795018;80;25585;-47
2023/01/01 03:51:40;;;;;;;9.35;5.15;;;;;;;12.88;76.59;100095.26;1794983;80;29503;-48
2023/01/01 03:54:11;;;;;;;7.25;4.83;;;;;;;12.89;75.99;100097.64;1794989;80;25388;-47
2023/01/01 03:56:49;;;;;;;10.38;5.53;;;;;;;12.91;74.45;100133.97;1750324;80;25499;-47
2023/01/01 03:59:24;;;;;;;8.88;4.42;;;;;;;12.99;75.07;100111.41;1760477;81;26095;-48
2023/01/01 04:01:59;;;;;;;7.95;4.35;;;;;;;13.06;74.53;100113.60;1758951;81;25586;-48
2023/01/01 04:04:28;;;;;;;14.55;4.85;;;;;;;13.14;74.62;100103.22;1759975;81;27436;-49
2023/01/01 04:06:57;;;;;;;11.25;8.18;;;;;;;13.21;73.99;100095.36;1760461;81;25392;-48
2023/01/01 04:09:27;;;;;;;;;;;;;;;13.27;74.85;100101.37;1763232;81;25498;-49
2023/01/01 04:12:06;;;;;;;76.90;72.00;;;;;;;13.29;73.12;100093.69;1760625;81;25859;-48
2023/01/01 04:14:39;;;;;;;61.83;57.55;;;;;;;13.37;74.05;100094.21;1734452;81;25483;-48
2023/01/01 04:17:10;;;;;;;72.00;67.45;;;;;;;13.44;72.54;100105.91;1760564;81;27331;-47
2023/01/01 04:19:38;;;;;;;58.52;54.58;;;;;;;13.49;72.29;100110.35;1760460;81;27189;-48
2023/01/01 04:22:07;;;;;;;74.62;69.75;;;;;;;13.57;71.70;100117.61;1760745;81;25551;-48
2023/01/01 04:24:33;;;;;;;77.58;72.25;;;;;;;13.60;71.20;100116.95;1734481;81;25570;-48
2023/01/01 04:27:00;;;;;;;77.40;72.12;;;;;;;13.61;72.02;100126.13;1734805;81;25588;-47
2023/01/01 04:29:26;;;;;;;76.60;71.75;;;;;;;13.64;70.93;100133.62;1760594;81;27342;-47
2023/01/01 04:31:55;;;;;;;76.70;71.70;;;;;;;13.62;72.07;100116.86;1760426;81;25553;-48
2023/01/01 04:34:25;;;;;;;75.45;70.60;;;;;;;13.62;70.73;100136.42;1760682;81;25388;-47
2023/01/01 04:36:51;;;;;;;11.48;10.15;;;;;;;13.66;71.23;100133.86;1760538;81;25627;-47
2023/01/01 04:39:17;;;;;;;24.07;22.20;;;;;;;13.67;71.44;100129.43;1760594;81;25454;-48
2023/01/01 04:41:47;;;;;;;6.92;4.60;;;;;;;13.70;70.80;100136.92;1760517;81;27452;-47
2023/01/01 04:44:13;;;;;;;8.48;4.37;;;;;;;13.72;70.56;100142.81;1760437;81;25442;-47
2023/01/01 04:46:41;;;;;;;8.23;4.37;;;;;;;13.73;71.10;100140.91;1760563;81;25671;-47
2023/01/01 04:49:11;;;;;;;7.65;4.87;;;;;;;13.74;70.08;100143.30;1760573;81;25594;-48
2023/01/01 04:51:38;;;;;;;;;;;;;;;13.75;69.86;100147.59;1763199;81;25554;-48
2023/01/01 04:54:08;;;;;;;9.58;4.72;;;;;;;13.78;70.47;100137.98;1734662;81;27485;-48
2023/01/01 04:56:34;;;;;;;9.43;4.62;;;;;;;13.77;69.95;100143.17;1768066;81;25785;-48
2023/01/01 04:59:00;;;;;;;75.40;70.50;;;;;;;13.76;69.85;100148.41;1770044;81;25630;-48
2023/01/01 05:01:30;;;;;;;9.15;6.17;;;;;;;13.77;69.85;100143.17;1788999;80;34794;-48
2023/01/01 05:04:00;;;;;;;54.77;51.35;;;;;;;13.77;69.61;100148.07;1789150;80;25475;-49
2023/01/01 05:06:28;;;;;;;76.40;71.50;;;;;;;13.78;69.20;100140.70;1789085;80;27880;-47
2023/01/01 05:08:58;;;;;;;76.87;71.80;;;;;;;13.80;69.54;100161.55;1789091;80;25801;-48
2023/01/01 05:11:28;;;;;;;77.08;72.27;;;;;;;13.83;67.50;100160.88;1792266;80;25621;-48
2023/01/01 05:14:01;;;;;;;76.25;71.33;;;;;;;13.84;68.55;100163.81;1757757;81;25548;-47
2023/01/01 05:16:36;;;;;;;76.72;71.72;;;;;;;13.85;69.05;100149.68;1758270;80;25500;-48
2023/01/01 05:19:07;;;;;;;76.60;71.60;;;;;;;13.83;68.10;100156.23;1788895;80;27372;-47
2023/01/01 05:21:39;;;;;;;76.75;71.77;;;;;;;13.85;68.62;100144.23;1789032;80;25384;-48
2023/01/01 05:24:10;;;;;;;75.85;70.92;;;;;;;13.83;68.30;100149.44;1789108;80;25385;-48
2023/01/01 05:26:41;;;;;;;77.90;72.90;;;;;;;13.83;67.69;100156.80;1789055;80;25954;-47
2023/01/01 05:29:10;;;;;;;77.20;72.32;;;;;;;13.85;68.84;100152.39;1789133;80;25394;-47
2023/01/01 05:31:39;;;;;;;59.08;55.25;;;;;;;13.83;68.65;100142.64;1789011;80;27448;-47
2023/01/01 05:34:05;;;;;;;48.63;45.45;;;;;;;13.84;67.43;100128.47;1789031;80;35095;-48
2023/01/01 05:36:37;;;;;;;6.67;3.60;;;;;;;13.88;68.01;100151.73;1788988;80;25194;-48
2023/01/01 05:39:13;;;;;;;6.03;3.58;;;;;;;13.89;68.02;100158.74;1788784;80;25632;-48
2023/01/01 05:41:43;;;;;;;3.98;2.80;;;;;;;13.91;67.84;100172.25;1758121;80;25550;-48
2023/01/01 05:44:11;;;;;;;5.05;3.17;;;;;;;13.88;68.01;100154.45;1789085;80;27358;-48
2023/01/01 05:46:40;;;;;;;5.45;3.35;;;;;;;13.89;67.63;100158.74;1789088;80;32789;-48
2023/01/01 05:49:11;;;;;;;6.03;3.55;;;;;;;13.88;67.78;100168.83;1788989;80;25602;-48
2023/01/01 05:51:39;;;;;;;7.65;3.42;;;;;;;13.87;67.11;100169.95;1788985;80;25536;-47
2023/01/01 05:54:06;;;;;;;8.00;3.65;;;;;;;13.86;66.63;100162.94;1788995;80;25612;-48
2023/01/01 05:56:32;;;;;;;7.92;3.42;;;;;;;13.85;67.03;100169.49;1788906;80;27873;-50
2023/01/01 05:58:58;;;;;;;6.28;3.65;;;;;;;13.86;67.19;100164.84;1788904;80;25454;-48
2023/01/01 06:01:28;;;;;;;5.12;3.10;;;;;;;13.86;67.23;100179.80;1788994;80;29916;-48
2023/01/01 06:03:58;;;;;;;5.75;3.80;;;;;;;13.85;66.29;100184.45;1789045;80;25472;-50
2023/01/01 06:06:32;;;;;;;5.55;3.52;;;;;;;13.89;67.09;100181.85;1789039;80;25444;-47
2023/01/01 06:09:04;;;;;;;6.62;3.30;;;;;;;13.86;67.17;100173.00;1789110;80;27317;-48
2023/01/01 06:11:34;;;;;;;4.50;3.45;;;;;;;13.87;66.86;100190.91;1789021;80;25542;-51
2023/01/01 06:14:02;;;;;;;6.22;4.47;;;;;;;13.89;65.61;100194.09;1789011;80;25540;-48
2023/01/01 06:16:30;;;;;;;7.22;4.30;;;;;;;13.92;66.68;100185.27;1788982;80;25605;-48
2023/01/01 06:18:58;;;;;;;5.83;3.17;;;;;;;13.93;66.43;100199.11;1789030;80;25391;-48
2023/01/01 06:21:28;;;;;;;10.65;3.55;;;;;;;13.94;65.68;100201.47;1789033;80;27007;-51
2023/01/01 06:24:04;;;;;;;7.40;4.03;;;;;;;13.96;65.83;100203.85;1788898;80;27211;-47
2023/01/01 06:26:31;;;;;;;8.28;3.85;;;;;;;13.96;66.32;100203.85;1787113;80;25463;-49
2023/01/01 06:29:01;;;;;;;5.90;3.35;;;;;;;13.96;65.08;100204.67;1789013;80;25466;-48
2023/01/01 06:31:31;;;;;;;6.78;3.52;;;;;;;13.99;65.52;100199.11;1789080;80;25552;-49
2023/01/01 06:34:03;;;;;;;8.15;3.75;;;;;;;13.99;65.37;100205.91;1789074;80;27302;-48
2023/01/01 06:36:30;;;;;;;5.08;3.30;;;;;;;13.97;65.01;100206.81;1789050;80;25420;-48
2023/01/01 06:38:58;;;;;;;10.38;3.67;;;;;;;13.99;63.64;100207.27;1788917;80;25446;-48
2023/01/01 06:41:29;;;;;;;5.45;2.92;;;;;;;13.99;65.43;100209.41;1789079;80;25424;-48
2023/01/01 06:44:00;;;;;;;5.65;3.83;;;;;;;13.99;65.17;100215.43;1789067;80;25384;-48
2023/01/01 06:46:34;;;;;;;8.10;3.27;;;;;;;13.99;65.37;100218.94;1789021;80;27330;-47
2023/01/01 06:49:12;;;;;;;7.17;3.27;;;;;;;13.95;65.39;100215.30;1788877;80;25623;-47
2023/01/01 06:51:42;;;;;;;6.62;4.85;;;;;;;13.92;65.16;100225.48;1789012;80;25603;-48
2023/01/01 06:54:11;;;;;;;76.12;71.28;;;;;;;13.91;64.66;100228.53;1788950;80;25412;-47
2023/01/01 06:56:39;;;;;;;50.83;47.48;;;;;;;13.91;64.30;100227.98;1792219;80;25459;-47
2023/01/01 06:59:08;;;;;;;12.55;11.48;;;;;;;13.91;64.36;100239.41;1794934;79;27333;-48
2023/01/01 07:01:39;;;;;;;75.70;70.92;;;;;;;13.90;64.39;100229.10;1794863;80;25462;-49
2023/01/01 07:04:12;;;;;;;75.83;70.80;;;;;;;13.87;63.92;100214.02;1794887;80;25564;-48
2023/01/01 07:06:42;;;;;;;75.17;70.35;;;;;;;13.84;64.59;100231.78;1794831;80;25399;-48
2023/01/01 07:09:10;;;;;;;75.85;70.92;;;;;;;13.80;65.12;100231.66;1795072;80;25371;-49
2023/01/01 07:11:39;;;;;;;75.87;70.87;;;;;;;13.77;64.70;100222.83;1765840;80;27247;-47
2023/01/01 07:14:06;;;;;;;75.42;70.52;;;;;;;13.76;64.63;100228.59;1794887;80;25422;-48
2023/01/01 07:16:32;;;;;;;74.70;70.10;;;;;;;13.75;64.65;100229.13;1794886;80;25383;-49
2023/01/01 07:19:01;;;;;;;74.22;69.53;;;;;;;13.73;64.93;100236.05;1794877;80;25556;-47
2023/01/01 07:21:39;;;;;;;74.82;70.15;;;;;;;13.70;65.15;100246.21;1795028;80;25611;-48
2023/01/01 07:24:12;;;;;;;76.20;71.10;;;;;;;13.66;64.13;100249.38;1795071;80;27389;-48
2023/01/01 07:26:42;;;;;;;75.30;70.35;;;;;;;13.66;64.72;100236.57;1794862;80;25612;-46
2023/01/01 07:29:09;;;;;;;;;;;;;;;13.69;64.43;100238.62;1797220;80;25481;-46
2023/01/01 07:31:41;;;;;;;4.40;2.72;;;;;;;13.73;64.69;100236.05;1794846;80;25397;-49
2023/01/01 07:34:13;;;;;;;7.65;3.35;;;;;;;13.74;64.55;100260.18;1763478;81;25442;-49
2023/01/01 07:36:40;;;;;;;6.80;3.67;;;;;;;13.75;64.78;100259.61;1794455;80;27350;-49
2023/01/01 07:39:09;;;;;;;9.38;4.35;;;;;;;13.75;64.76;100265.83;1794716;80;25474;-49
2023/01/01 07:41:38;;;;;;;5.60;3.25;;;;;;;13.75;64.17;100279.42;1794805;80;25389;-48
2023/01/01 07:44:06;;;;;;;5.58;3.58;;;;;;;13.76;64.18;100275.59;1794791;80;25530;-48
2023/01/01 07:46:38;;;;;;;8.35;3.12;;;;;;;13.77;65.07;100275.83;1794903;80;25626;-48
2023/01/01 07:49:08;;;;;;;6.10;3.67;;;;;;;13.79;64.36;100280.37;1794880;80;27338;-48
2023/01/01 07:51:37;;;;;;;5.10;3.45;;;;;;;13.84;64.62;100280.72;1794860;80;25412;-49
2023/01/01 07:54:06;;;;;;;8.85;3.30;;;;;;;13.87;64.51;100281.98;1794957;80;25617;-48
2023/01/01 07:56:35;;;;;;;6.08;3.20;;;;;;;14.00;62.86;100293.96;1792643;80;25427;-48
2023/01/01 07:59:01;;;;;;;6.03;3.67;;;;;;;13.99;63.27;100273.89;1789173;80;25439;-49
2023/01/01 08:01:28;;;;;;;7.72;4.05;;;;;;;14.08;64.25;100282.80;1788955;80;28097;-47
2023/01/01 08:03:54;;;;;;;11.33;10.28;;;;;;;14.16;64.24;100271.59;1788902;80;25659;-47
2023/01/01 08:06:21;;;;;;;69.25;64.80;;;;;;;14.27;63.87;100282.84;1788946;80;25530;-47
2023/01/01 08:08:48;;;;;;;6.25;3.62;;;;;;;14.39;61.39;100291.09;1757893;80;26182;-49
2023/01/01 08:11:15;;;;;;;4.78;2.95;;;;;;;14.51;61.34;100287.04;1757720;81;25439;-48
2023/01/01 08:13:41;;;;;;;7.42;3.20;;;;;;;14.63;61.23;100293.69;1788928;80;27433;-49
2023/01/01 08:16:07;;;;;;;9.13;4.65;;;;;;;14.76;60.87;100307.54;1789053;80;25164;-47
2023/01/01 08:18:34;;;;;;;6.65;2.98;;;;;;;14.89;60.96;100296.91;1789081;80;25532;-48
2023/01/01 08:21:00;;;;;;;10.03;3.55;;;;;;;15.07;61.10;100299.45;1752044;80;26325;-48
2023/01/01 08:23:27;;;;;;;8.10;3.55;;;;;;;15.27;61.33;100304.00;1789161;80;25398;-50
2023/01/01 08:26:01;;;;;;;11.05;3.85;;;;;;;15.43;60.26;100308.19;1789089;80;28024;-48
2023/01/01 08:28:31;;;;;;;74.05;69.40;;;;;;;15.59;59.51;100313.73;1789088;80;25545;-47
2023/01/01 08:30:59;;;;;;;6.30;2.50;;;;;;;15.80;60.16;100315.56;1754407;81;25541;-47
2023/01/01 08:33:25;;;;;;;6.80;4.55;;;;;;;16.14;59.79;100321.63;1757801;81;25559;-48
2023/01/01 08:35:57;;;;;;;9.85;3.40;;;;;;;16.39;57.96;100328.58;1789142;80;25466;-47
2023/01/01 08:38:24;;;;;;;3.85;2.70;;;;;;;16.60;58.01;100315.30;1789130;80;27878;-48
2023/01/01 08:40:52;;;;;;;10.20;2.87;;;;;;;16.93;56.20;100318.34;1756944;80;25564;-47
2023/01/01 08:43:18;;;;;;;11.33;4.17;;;;;;;17.14;57.11;100319.45;1758366;80;25590;-48
2023/01/01 08:45:45;;;;;;;6.17;3.33;;;;;;;17.27;55.24;100328.36;1752088;80;26212;-48
2023/01/01 08:48:14;;;;;;;6.40;4.12;;;;;;;17.38;54.65;100328.61;1789057;80;25451;-48
2023/01/01 08:50:40;;;;;;;8.55;4.28;;;;;;;17.51;55.14;100339.67;1789149;80;29444;-49
2023/01/01 08:53:07;;;;;;;8.83;4.10;;;;;;;17.50;53.30;100329.32;1788964;80;25462;-48
2023/01/01 08:55:33;;;;;;;12.25;3.27;;;;;;;17.41;55.20;100333.38;1789106;80;25780;-49
2023/01/01 08:58:07;;;;;;;8.73;3.40;;;;;;;17.60;54.40;100327.17;1793890;80;25588;-47
2023/01/01 09:00:36;;;;;;;7.40;3.33;;;;;;;17.68;53.81;100333.03;1795082;80;25569;-49
2023/01/01 09:03:03;;;;;;;5.60;3.47;;;;;;;17.85;54.07;100344.95;1795113;80;27340;-49
2023/01/01 09:05:29;;;;;;;7.05;3.02;;;;;;;18.15;52.94;100345.02;1766111;80;25564;-50
2023/01/01 09:07:55;;;;;;;12.15;2.90;;;;;;;18.39;54.18;100348.05;1794954;80;25624;-49
2023/01/01 09:10:21;;;;;;;7.75;3.10;;;;;;;18.65;54.62;100342.70;1794924;80;25945;-48
2023/01/01 09:12:47;;;;;;;6.62;2.62;;;;;;;18.92;50.25;100341.47;1794935;80;25444;-51
2023/01/01 09:15:18;;;;;;;9.08;3.30;;;;;;;19.13;52.30;100345.73;1794904;80;27984;-47
2023/01/01 09:17:44;;;;;;;11.15;3.25;;;;;;;19.27;51.74;100351.44;1794897;80;26134;-48
2023/01/01 09:20:13;;;;;;;7.22;3.52;;;;;;;19.44;50.04;100354.85;1794876;80;25506;-47
2023/01/01 09:22:39;;;;;;;;;;;;;;;19.60;48.25;100348.06;1797561;80;25624;-47
2023/01/01 09:25:08;;;;;;;7.75;2.92;;;;;;;19.88;50.70;100342.02;1794991;80;25568;-49
2023/01/01 09:27:35;;;;;;;8.45;4.65;;;;;;;20.24;47.22;100352.87;1794998;80;28456;-48
2023/01/01 09:30:01;;;;;;;9.85;3.50;;;;;;;20.36;47.76;100360.67;1794760;80;25663;-48
2023/01/01 09:32:28;;;;;;;7.75;3.15;;;;;;;20.33;47.18;100348.50;1794901;80;25652;-49
2023/01/01 09:34:59;;;;;;;8.73;3.05;;;;;;;20.33;46.48;100346.53;1794884;80;27434;-48
2023/01/01 09:37:27;;;;;;;10.90;3.17;;;;;;;20.28;46.08;100359.81;1795034;80;25659;-48
2023/01/01 09:39:53;;;;;;;7.72;3.20;;;;;;;20.08;43.30;100355.82;1794984;80;27387;-47
2023/01/01 09:42:40;;;;;;;10.20;3.27;;;;;;;19.80;45.96;100352.09;1794798;80;25374;-48
2023/01/01 09:45:29;;;;;;;18.98;3.67;;;;;;;19.51;45.03;100350.84;1794325;80;25547;-49
2023/01/01 09:48:06;;;;;;;9.28;3.25;;;;;;;19.06;44.88;100346.98;1795059;80;25991;-47
2023/01/01 09:50:43;;;;;;;8.65;2.85;;;;;;;18.65;46.21;100352.29;1794923;80;25534;-48
2023/01/01 09:53:54;;;;;;;12.43;3.50;;;;;;;18.38;47.90;100340.41;1794947;80;27395;-48
2023/01/01 09:56:26;;;;;;;14.47;3.30;;;;;;;18.17;47.76;100344.10;1764371;80;25565;-48
2023/01/01 09:58:58;;;;;;;11.88;3.75;;;;;;;18.01;47.38;100338.08;1793047;80;25571;-48
2023/01/01 10:01:47;;;;;;;15.68;2.85;;;;;;;17.90;47.72;100355.64;1794950;80;25581;-50
2023/01/01 10:04:31;;;;;;;9.08;3.08;;;;;;;17.85;49.04;100342.80;1794983;80;25585;-49
2023/01/01 10:07:15;;;;;;;9.90;3.02;;;;;;;17.75;49.40;100342.77;1794959;80;27335;-48
2023/01/01 10:09:53;;;;;;;9.80;3.55;;;;;;;17.72;48.06;100354.41;1793735;80;25980;-47
2023/01/01 10:12:54;;;;;;;4.60;2.90;;;;;;;17.70;47.30;100345.19;1791885;80;25465;-46
2023/01/01 10:15:34;;;;;;;10.45;4.00;;;;;;;17.76;47.37;100349.02;1794957;80;26195;-48
2023/01/01 10:18:06;;;;;;;8.70;2.98;;;;;;;18.07;49.80;100343.50;1794917;80;25636;-49
2023/01/01 10:20:46;;;;;;;10.00;3.00;;;;;;;18.25;46.96;100328.02;1795016;80;26732;-50
2023/01/01 10:23:24;;;;;;;9.10;3.08;;;;;;;18.42;48.96;100342.66;1765806;80;25416;-47
2023/01/01 10:25:55;;;;;;;11.65;3.15;;;;;;;18.73;47.19;100337.34;1794467;80;25422;-47
2023/01/01 10:28:35;;;;;;;12.28;3.75;;;;;;;18.90;45.98;100338.86;1794913;80;25492;-47
2023/01/01 10:31:22;;;;;;;14.05;3.30;;;;;;;18.97;45.08;100320.61;1795054;80;25551;-49
2023/01/01 10:33:52;;;;;;;10.88;3.22;;;;;;;19.12;46.84;100325.77;1757942;80;27490;-46
2023/01/01 10:36:20;;;;;;;11.50;3.00;;;;;;;19.25;46.41;100330.46;1794764;80;25419;-49
2023/01/01 10:38:50;;;;;;;6.97;3.40;;;;;;;19.29;47.31;100320.91;1794831;80;25396;-49
2023/01/01 10:41:18;;;;;;;11.75;3.08;;;;;;;19.31;46.40;100329.00;1794866;80;25379;-49
2023/01/01 10:43:48;;;;;;;8.48;3.02;;;;;;;19.36;45.67;100311.45;1794907;80;25581;-48
2023/01/01 10:46:23;;;;;;;8.75;2.50;;;;;;;19.70;45.84;100317.02;1794917;80;28261;-46
2023/01/01 10:49:11;;;;;;;13.78;3.05;;;;;;;19.96;45.26;100323.11;1794815;80;25628;-48
2023/01/01 10:51:49;;;;;;;12.45;3.25;;;;;;;20.04;45.63;100317.12;1794797;80;25567;-48
2023/01/01 10:54:33;;;;;;;8.25;2.72;;;;;;;20.37;44.83;100318.32;1794939;80;25231;-48
2023/01/01 10:57:15;;;;;;;10.30;3.42;;;;;;;20.76;44.25;100320.14;1793872;80;25556;-49
2023/01/01 10:59:45;;;;;;;15.53;3.77;;;;;;;21.18;43.59;100309.33;1781627;80;27343;-48
2023/01/01 11:02:25;;;;;;;10.40;3.40;;;;;;;21.47;41.62;100323.89;1789165;80;25840;-51
2023/01/01 11:05:15;;;;;;;11.48;2.98;;;;;;;21.83;41.12;100295.42;1789041;80;25446;-49
2023/01/01 11:07:46;;;;;;;9.50;3.33;;;;;;;22.31;42.72;100303.32;1789000;80;25550;-48
2023/01/01 11:10:25;;;;;;;7.55;2.90;;;;;;;22.68;40.57;100299.45;1789091;80;25617;-49
2023/01/01 11:12:53;;;;;;;7.45;2.50;;;;;;;22.80;40.21;100301.85;1789103;80;27340;-52
2023/01/01 11:15:36;;;;;;;11.15;3.45;;;;;;;22.85;39.03;100297.90;1758175;80;25791;-49
2023/01/01 11:18:11;;;;;;;12.25;2.72;;;;;;;22.89;39.41;100302.25;1789050;80;25549;-49
2023/01/01 11:20:41;;;;;;;11.28;3.25;;;;;;;22.62;39.02;100297.68;1785892;80;25511;-50
2023/01/01 11:23:31;;;;;;;13.03;3.00;;;;;;;22.62;39.78;100298.28;1789080;80;25598;-50
2023/01/01 11:26:18;;;;;;;6.60;2.95;;;;;;;22.84;39.39;100300.47;1663745;86;27331;-47
2023/01/01 11:29:18;;;;;;;13.03;3.27;;;;;;;22.92;37.88;100289.05;1646389;87;25448;-50
2023/01/01 11:31:50;;;;;;;15.40;3.27;;;;;;;23.00;38.97;100297.32;1696547;83;25653;-49
2023/01/01 11:34:31;;;;;;;11.20;3.40;;;;;;;22.82;37.01;100296.73;1694417;84;25775;-48
2023/01/01 11:37:25;;;;;;;8.78;2.45;;;;;;;22.62;38.33;100299.05;1695146;84;25515;-49
2023/01/01 11:39:57;;;;;;;13.10;3.17;;;;;;;22.43;36.60;100302.17;1694011;84;27402;-50
2023/01/01 11:42:31;;;;;;;11.38;3.62;;;;;;;22.27;38.70;100299.72;1695047;84;25680;-49
2023/01/01 11:45:24;;;;;;;12.07;3.20;;;;;;;22.31;37.11;100293.08;1695040;84;25448;-52
2023/01/01 11:47:56;;;;;;;11.08;3.42;;;;;;;22.23;38.39;100297.55;1694127;84;25705;-48
2023/01/01 11:50:27;;;;;;;11.35;3.10;;;;;;;22.07;37.05;100293.77;1692382;84;25580;-49